createdAt,value
2022-10-26T00:01:20.766Z,4.50
2022-10-26T00:03:47.201Z,4.65
2022-10-26T00:06:33.921Z,4.35
2022-10-26T00:09:00.334Z,5.13
2022-10-26T00:11:26.818Z,5.03
2022-10-26T00:13:53.237Z,4.40
2022-10-26T00:16:27.005Z,3.90
2022-10-26T00:18:53.521Z,4.18
2022-10-26T00:21:19.899Z,4.37
2022-10-26T00:23:46.374Z,5.47
2022-10-26T00:26:23.844Z,4.38
2022-10-26T00:28:53.561Z,4.55
2022-10-26T00:31:27.267Z,4.90
2022-10-26T00:33:58.028Z,4.80
2022-10-26T00:36:25.929Z,4.35
2022-10-26T00:39:05.033Z,4.15
2022-10-26T00:41:34.213Z,3.75
2022-10-26T00:44:40.269Z,4.35
2022-10-26T00:47:06.744Z,4.37
2022-10-26T00:49:35.173Z,4.47
2022-10-26T00:52:01.672Z,4.50
2022-10-26T00:54:28.070Z,4.25
2022-10-26T00:56:55.216Z,4.30
2022-10-26T00:59:23.229Z,4.67
2022-10-26T01:01:51.227Z,4.70
2022-10-26T01:04:20.131Z,4.70
2022-10-26T01:06:47.110Z,4.10
2022-10-26T01:09:20.728Z,4.55
2022-10-26T01:11:49.161Z,4.83
2022-10-26T01:14:18.616Z,4.45
2022-10-26T01:17:41.507Z,5.30
2022-10-26T01:20:45.225Z,5.10
2022-10-26T01:23:34.351Z,4.43
2022-10-26T01:26:37.990Z,4.10
2022-10-26T01:29:07.439Z,4.15
2022-10-26T01:32:06.199Z,3.50
2022-10-26T01:34:36.331Z,4.10
2022-10-26T01:37:10.710Z,3.83
2022-10-26T01:40:19.896Z,4.27
2022-10-26T01:42:53.060Z,3.67
2022-10-26T01:45:26.469Z,3.83
2022-10-26T01:47:59.503Z,4.05
2022-10-26T01:50:30.117Z,4.00
2022-10-26T01:52:56.557Z,3.87
2022-10-26T01:55:54.759Z,4.00
2022-10-26T01:58:45.114Z,4.00
2022-10-26T02:01:29.838Z,3.83
2022-10-26T02:04:31.565Z,3.72
2022-10-26T02:07:07.907Z,4.00
2022-10-26T02:09:43.261Z,3.95
2022-10-26T02:12:41.037Z,4.50
2022-10-26T02:15:18.420Z,4.30
2022-10-26T02:17:58.697Z,3.67
2022-10-26T02:20:28.582Z,4.67
2022-10-26T02:23:06.488Z,3.80
2022-10-26T02:25:40.216Z,3.92
2022-10-26T02:28:22.684Z,4.68
2022-10-26T02:30:53.083Z,4.43
2022-10-26T02:33:21.055Z,4.10
2022-10-26T02:36:15.599Z,3.50
2022-10-26T02:38:43.735Z,4.30
2022-10-26T02:41:26.072Z,4.22
2022-10-26T02:44:14.567Z,4.65
2022-10-26T02:46:41.601Z,4.80
2022-10-26T02:49:17.946Z,4.85
2022-10-26T02:52:24.517Z,4.78
2022-10-26T02:55:22.374Z,4.00
2022-10-26T02:57:54.830Z,4.32
2022-10-26T03:00:21.387Z,4.60
2022-10-26T03:02:54.031Z,4.13
2022-10-26T03:05:33.200Z,4.32
2022-10-26T03:08:17.898Z,3.95
2022-10-26T03:10:53.474Z,4.15
2022-10-26T03:13:19.829Z,4.30
2022-10-26T03:15:46.325Z,4.50
2022-10-26T03:18:12.963Z,4.30
2022-10-26T03:20:39.355Z,4.80
2022-10-26T03:23:17.101Z,3.63
2022-10-26T03:25:46.479Z,4.33
2022-10-26T03:28:14.287Z,3.63
2022-10-26T03:31:05.745Z,3.50
2022-10-26T03:33:32.131Z,4.22
2022-10-26T03:36:00.601Z,5.75
2022-10-26T03:38:27.023Z,4.33
2022-10-26T03:40:54.441Z,4.05
2022-10-26T03:43:20.923Z,4.55
2022-10-26T03:45:49.708Z,4.25
2022-10-26T03:48:16.213Z,4.18
2022-10-26T03:50:42.661Z,4.07
2022-10-26T03:53:15.361Z,4.20
2022-10-26T03:55:44.810Z,4.20
2022-10-26T03:58:20.313Z,3.70
2022-10-26T04:00:47.869Z,4.55
2022-10-26T04:03:14.304Z,4.50
2022-10-26T04:05:40.846Z,3.83
2022-10-26T04:08:12.311Z,3.90
2022-10-26T04:10:55.161Z,4.47
2022-10-26T04:13:21.525Z,3.95
2022-10-26T04:15:48.004Z,4.30
2022-10-26T04:18:17.596Z,3.83
2022-10-26T04:20:44.170Z,3.90
2022-10-26T04:23:17.390Z,3.70
2022-10-26T04:25:44.547Z,3.58
2022-10-26T04:28:25.335Z,3.73
2022-10-26T04:30:51.728Z,3.97
2022-10-26T04:33:18.071Z,3.75
2022-10-26T04:35:45.620Z,4.25
2022-10-26T04:38:28.573Z,4.22
2022-10-26T04:40:58.972Z,3.70
2022-10-26T04:43:35.575Z,3.97
2022-10-26T04:46:05.124Z,3.58
2022-10-26T04:48:34.484Z,4.15
2022-10-26T04:51:01.601Z,4.32
2022-10-26T04:53:40.328Z,4.33
2022-10-26T04:56:07.020Z,4.05
2022-10-26T04:58:33.401Z,3.53
2022-10-26T05:01:14.272Z,4.25
2022-10-26T05:03:40.732Z,3.65
2022-10-26T05:06:07.197Z,4.73
2022-10-26T05:08:47.208Z,3.72
2022-10-26T05:11:13.700Z,3.90
2022-10-26T05:13:58.549Z,4.05
2022-10-26T05:16:25.043Z,3.88
2022-10-26T05:18:52.584Z,4.47
2022-10-26T05:21:20.082Z,4.03
2022-10-26T05:23:53.877Z,3.67
2022-10-26T05:26:20.709Z,3.65
2022-10-26T05:28:48.368Z,3.63
2022-10-26T05:31:47.754Z,3.43
2022-10-26T05:34:35.418Z,3.67
2022-10-26T05:37:21.032Z,3.05
2022-10-26T05:39:50.516Z,3.15
2022-10-26T05:42:16.956Z,3.78
2022-10-26T05:44:43.357Z,3.60
2022-10-26T05:47:09.758Z,3.95
2022-10-26T05:49:36.285Z,4.00
2022-10-26T05:52:19.141Z,4.00
2022-10-26T05:54:46.620Z,4.30
2022-10-26T05:57:13.733Z,3.80
2022-10-26T05:59:40.420Z,3.85
2022-10-26T06:02:35.356Z,3.10
2022-10-26T06:05:06.168Z,3.78
2022-10-26T06:07:57.672Z,3.40
2022-10-26T06:10:24.720Z,3.57
2022-10-26T06:12:51.659Z,4.18
2022-10-26T06:15:22.421Z,4.22
2022-10-26T06:18:43.340Z,4.05
2022-10-26T06:21:30.880Z,3.92
2022-10-26T06:24:27.740Z,3.90
2022-10-26T06:27:18.562Z,4.03
2022-10-26T06:30:11.853Z,3.55
2022-10-26T06:32:40.661Z,4.18
2022-10-26T06:35:37.244Z,3.75
2022-10-26T06:38:11.808Z,4.33
2022-10-26T06:40:40.653Z,4.13
2022-10-26T06:43:22.745Z,4.20
2022-10-26T06:46:06.384Z,4.63
2022-10-26T06:48:50.024Z,4.50
2022-10-26T06:51:20.673Z,4.33
2022-10-26T06:54:08.569Z,4.18
2022-10-26T06:56:36.143Z,4.10
2022-10-26T06:59:13.184Z,4.03
2022-10-26T07:01:41.091Z,4.00
2022-10-26T07:04:12.717Z,4.60
2022-10-26T07:06:44.915Z,3.75
2022-10-26T07:09:11.353Z,4.30
2022-10-26T07:11:38.877Z,4.20
2022-10-26T07:14:16.502Z,4.22
2022-10-26T07:16:42.936Z,4.00
2022-10-26T07:19:09.395Z,4.07
2022-10-26T07:22:01.730Z,3.85
2022-10-26T07:24:45.628Z,3.70
2022-10-26T07:27:12.017Z,4.57
2022-10-26T07:29:39.619Z,3.90
2022-10-26T07:32:07.127Z,3.83
2022-10-26T07:34:33.542Z,3.70
2022-10-26T07:37:00.720Z,3.50
2022-10-26T07:39:27.676Z,3.88
2022-10-26T07:41:54.063Z,3.80
2022-10-26T07:44:20.420Z,4.13
2022-10-26T07:46:46.934Z,4.15
2022-10-26T07:49:16.279Z,3.47
2022-10-26T07:51:45.686Z,4.07
2022-10-26T07:54:12.059Z,3.77
2022-10-26T07:56:38.403Z,3.67
2022-10-26T07:59:04.865Z,3.42
2022-10-26T08:01:31.391Z,3.97
2022-10-26T08:03:57.860Z,3.80
2022-10-26T08:06:24.306Z,3.77
2022-10-26T08:08:51.865Z,3.80
2022-10-26T08:11:18.244Z,3.58
2022-10-26T08:13:44.692Z,3.78
2022-10-26T08:16:11.604Z,3.88
2022-10-26T08:18:38.000Z,3.83
2022-10-26T08:21:11.189Z,3.70
2022-10-26T08:23:39.191Z,3.00
2022-10-26T08:26:05.956Z,3.55
2022-10-26T08:28:32.548Z,3.10
2022-10-26T08:30:59.258Z,3.30
2022-10-26T08:33:25.712Z,3.30
2022-10-26T08:35:59.722Z,2.70
2022-10-26T08:38:26.461Z,3.05
2022-10-26T08:40:53.870Z,2.60
2022-10-26T08:43:56.487Z,2.90
2022-10-26T08:46:33.265Z,2.38
2022-10-26T08:49:04.834Z,2.75
2022-10-26T08:51:37.424Z,3.20
2022-10-26T08:54:19.279Z,3.30
2022-10-26T08:56:51.005Z,3.17
2022-10-26T08:59:30.063Z,3.47
2022-10-26T09:01:56.738Z,2.83
2022-10-26T09:04:28.160Z,2.92
2022-10-26T09:06:59.025Z,3.13
2022-10-26T09:09:44.703Z,3.43
2022-10-26T09:12:39.126Z,3.22
2022-10-26T09:15:08.381Z,3.13
2022-10-26T09:17:58.336Z,3.75
2022-10-26T09:20:41.861Z,3.22
2022-10-26T09:23:14.270Z,3.33
2022-10-26T09:25:41.693Z,3.13
2022-10-26T09:28:16.912Z,3.78
2022-10-26T09:30:48.232Z,2.90
2022-10-26T09:33:19.115Z,3.70
2022-10-26T09:36:02.079Z,2.97
2022-10-26T09:38:36.492Z,3.40
2022-10-26T09:41:32.983Z,3.55
2022-10-26T09:44:27.085Z,3.10
2022-10-26T09:47:01.396Z,2.97
2022-10-26T09:49:36.323Z,3.50
2022-10-26T09:52:03.039Z,3.00
2022-10-26T09:54:29.788Z,3.10
2022-10-26T09:57:00.356Z,3.17
2022-10-26T09:59:27.307Z,2.90
2022-10-26T10:01:53.841Z,3.10
2022-10-26T10:04:22.780Z,3.58
2022-10-26T10:06:51.933Z,2.90
2022-10-26T10:09:21.516Z,2.92
2022-10-26T10:11:56.557Z,2.78
2022-10-26T10:14:25.738Z,2.53
2022-10-26T10:16:59.038Z,2.92
2022-10-26T10:19:30.729Z,2.70
2022-10-26T10:22:00.263Z,2.55
2022-10-26T10:24:27.981Z,2.70
2022-10-26T10:27:12.223Z,2.57
2022-10-26T10:29:49.777Z,2.70
2022-10-26T10:32:24.436Z,2.85
2022-10-26T10:34:53.780Z,3.03
2022-10-26T10:37:34.796Z,2.80
2022-10-26T10:40:21.870Z,2.90
2022-10-26T10:42:51.239Z,2.88
2022-10-26T10:45:23.558Z,2.47
2022-10-26T10:48:01.183Z,2.38
2022-10-26T10:50:29.415Z,2.80
2022-10-26T10:53:18.424Z,2.43
2022-10-26T10:56:23.547Z,2.45
2022-10-26T10:59:03.383Z,2.65
2022-10-26T11:01:38.612Z,2.75
2022-10-26T11:04:21.375Z,2.70
2022-10-26T11:06:49.392Z,2.57
2022-10-26T11:09:21.864Z,2.58
2022-10-26T11:11:57.941Z,2.53
2022-10-26T11:14:32.872Z,2.80
2022-10-26T11:17:06.533Z,2.90
2022-10-26T11:19:43.006Z,2.90
2022-10-26T11:22:15.438Z,3.05
2022-10-26T11:24:50.647Z,3.35
2022-10-26T11:27:21.812Z,3.95
2022-10-26T11:30:18.619Z,4.10
2022-10-26T11:32:57.693Z,4.20
2022-10-26T11:35:29.444Z,3.88
2022-10-26T11:38:12.758Z,3.35
2022-10-26T11:40:47.920Z,3.60
2022-10-26T11:43:18.744Z,3.17
2022-10-26T11:45:50.051Z,3.60
2022-10-26T11:48:26.033Z,2.75
2022-10-26T11:50:55.908Z,2.72
2022-10-26T11:53:36.693Z,2.90
2022-10-26T11:56:05.177Z,3.65
2022-10-26T11:58:32.536Z,3.10
2022-10-26T12:01:07.801Z,3.05
2022-10-26T12:03:38.855Z,3.67
2022-10-26T12:06:05.461Z,3.88
2022-10-26T12:08:42.503Z,3.53
2022-10-26T12:11:33.083Z,3.30
2022-10-26T12:14:24.856Z,2.55
2022-10-26T12:17:09.479Z,3.78
2022-10-26T12:19:53.415Z,3.00
2022-10-26T12:22:34.426Z,2.90
2022-10-26T12:25:15.147Z,2.40
2022-10-26T12:27:41.749Z,3.00
2022-10-26T12:30:34.884Z,2.90
2022-10-26T12:33:05.224Z,2.65
2022-10-26T12:35:33.891Z,2.55
2022-10-26T12:38:44.897Z,3.10
2022-10-26T12:41:27.466Z,2.78
2022-10-26T12:43:56.509Z,2.88
2022-10-26T12:46:25.945Z,3.13
2022-10-26T12:48:53.887Z,2.53
2022-10-26T12:51:26.761Z,2.60
2022-10-26T12:54:07.339Z,2.90
2022-10-26T12:56:45.451Z,2.33
2022-10-26T12:59:57.944Z,2.97
2022-10-26T13:02:40.657Z,2.83
2022-10-26T13:05:42.015Z,3.13
2022-10-26T13:08:10.485Z,2.70
2022-10-26T13:10:40.315Z,3.20
2022-10-26T13:13:08.873Z,3.53
2022-10-26T13:16:13.272Z,3.10
2022-10-26T13:18:45.066Z,3.00
2022-10-26T13:21:20.802Z,2.95
2022-10-26T13:23:53.169Z,2.72
2022-10-26T13:26:22.068Z,3.22
2022-10-26T13:29:03.690Z,2.85
2022-10-26T13:31:41.565Z,2.83
2022-10-26T13:34:17.001Z,2.63
2022-10-26T13:37:33.341Z,2.30
2022-10-26T13:40:05.783Z,2.80
2022-10-26T13:43:06.172Z,2.78
2022-10-26T13:45:55.170Z,3.00
2022-10-26T13:48:36.576Z,2.65
2022-10-26T13:51:11.318Z,2.80
2022-10-26T13:53:49.591Z,3.30
2022-10-26T13:56:33.729Z,3.13
2022-10-26T13:59:06.401Z,3.03
2022-10-26T14:01:32.994Z,3.80
2022-10-26T14:04:28.958Z,3.40
2022-10-26T14:06:55.458Z,3.15
2022-10-26T14:09:22.731Z,3.50
2022-10-26T14:11:52.192Z,3.47
2022-10-26T14:14:38.581Z,2.92
2022-10-26T14:17:05.660Z,3.05
2022-10-26T14:19:38.140Z,3.42
2022-10-26T14:22:24.285Z,3.10
2022-10-26T14:27:38.528Z,3.17
2022-10-26T14:30:28.412Z,3.83
2022-10-26T14:33:19.775Z,3.10
2022-10-26T14:35:47.905Z,3.17
2022-10-26T14:38:23.576Z,3.33
2022-10-26T14:40:53.564Z,3.10
2022-10-26T14:43:23.856Z,3.25
2022-10-26T14:46:00.477Z,3.25
2022-10-26T14:48:35.667Z,2.80
2022-10-26T14:51:15.712Z,1.93
2022-10-26T14:54:05.187Z,2.13
2022-10-26T14:56:56.371Z,2.17
2022-10-26T14:59:28.468Z,2.08
2022-10-26T15:02:26.069Z,1.80
2022-10-26T15:05:01.935Z,1.70
2022-10-26T15:07:55.900Z,1.70
2022-10-26T15:11:01.404Z,2.20
2022-10-26T15:13:42.620Z,2.47
2022-10-26T15:16:22.058Z,1.63
2022-10-26T15:18:52.820Z,1.57
2022-10-26T15:21:52.525Z,1.63
2022-10-26T15:24:39.268Z,1.10
2022-10-26T15:27:16.556Z,1.63
2022-10-26T15:29:44.338Z,1.60
2022-10-26T15:32:32.235Z,1.60
2022-10-26T15:35:22.915Z,1.65
2022-10-26T15:37:55.417Z,2.30
2022-10-26T15:40:23.230Z,1.63
2022-10-26T15:43:17.873Z,1.77
2022-10-26T15:45:52.097Z,1.73
2022-10-26T15:48:29.069Z,1.60
2022-10-26T15:50:56.081Z,1.63
2022-10-26T15:53:27.748Z,1.52
2022-10-26T15:56:16.028Z,2.08
2022-10-26T15:58:44.256Z,1.67
2022-10-26T16:01:18.667Z,1.50
2022-10-26T16:03:45.399Z,1.40
2022-10-26T16:06:18.353Z,1.80
2022-10-26T16:09:15.442Z,1.60
2022-10-26T16:11:43.144Z,2.90
2022-10-26T16:14:10.807Z,2.30
2022-10-26T16:16:37.321Z,1.70
2022-10-26T16:19:29.910Z,2.35
2022-10-26T16:21:52.305Z,1.63
2022-10-26T16:24:21.073Z,1.67
2022-10-26T16:26:47.561Z,1.73
2022-10-26T16:29:14.335Z,1.65
2022-10-26T16:31:43.909Z,1.77
2022-10-26T16:34:12.403Z,2.03
2022-10-26T16:36:38.987Z,1.53
2022-10-26T16:39:06.491Z,1.67
2022-10-26T16:41:34.651Z,2.33
2022-10-26T16:44:01.051Z,1.88
2022-10-26T16:46:27.404Z,3.35
2022-10-26T16:48:54.899Z,3.30
2022-10-26T16:51:29.532Z,4.82
2022-10-26T16:53:59.022Z,4.00
2022-10-26T16:56:28.347Z,3.25
2022-10-26T16:58:54.893Z,3.20
2022-10-26T17:01:22.555Z,3.23
2022-10-26T17:03:50.989Z,3.20
2022-10-26T17:06:28.808Z,2.70
2022-10-26T17:09:10.577Z,3.78
2022-10-26T17:11:37.073Z,3.42
2022-10-26T17:14:03.473Z,2.80
2022-10-26T17:16:29.977Z,2.58
2022-10-26T17:18:56.488Z,2.60
2022-10-26T17:21:48.951Z,2.97
2022-10-26T17:24:15.440Z,2.67
2022-10-26T17:26:42.137Z,2.53
2022-10-26T17:31:37.230Z,2.30
2022-10-26T17:34:03.663Z,2.78
2022-10-26T17:36:31.610Z,2.58
2022-10-26T17:38:58.155Z,3.00
2022-10-26T17:41:36.962Z,2.78
2022-10-26T17:44:03.460Z,2.80
2022-10-26T17:46:29.935Z,3.10
2022-10-26T17:49:00.472Z,3.38
2022-10-26T17:51:29.401Z,3.27
2022-10-26T17:54:10.150Z,3.03
2022-10-26T17:56:36.581Z,2.95
2022-10-26T17:59:05.975Z,3.28
2022-10-26T18:01:47.827Z,2.63
2022-10-26T18:04:46.476Z,2.67
2022-10-26T18:07:13.111Z,3.70
2022-10-26T18:09:39.467Z,3.80
2022-10-26T18:12:06.077Z,4.55
2022-10-26T18:14:32.660Z,3.67
2022-10-26T18:16:59.051Z,4.30
2022-10-26T18:19:25.421Z,4.05
2022-10-26T18:21:51.784Z,4.30
2022-10-26T18:24:18.167Z,3.75
2022-10-26T18:26:44.562Z,3.30
2022-10-26T18:29:12.548Z,3.60
2022-10-26T18:32:05.647Z,3.47
2022-10-26T18:34:45.389Z,3.30
2022-10-26T18:37:11.741Z,3.35
2022-10-26T18:39:38.116Z,3.85
2022-10-26T18:42:04.580Z,3.40
2022-10-26T18:44:30.948Z,3.83
2022-10-26T18:47:08.614Z,4.10
2022-10-26T18:49:35.021Z,4.30
2022-10-26T18:52:09.725Z,4.22
2022-10-26T18:54:36.158Z,4.23
2022-10-26T18:57:02.500Z,3.83
2022-10-26T18:59:28.856Z,3.42
2022-10-26T19:02:04.628Z,3.90
2022-10-26T19:04:31.097Z,3.70
2022-10-26T19:07:14.976Z,3.70
2022-10-26T19:10:03.121Z,3.38
2022-10-26T19:12:29.518Z,3.20
2022-10-26T19:15:01.052Z,3.50
2022-10-26T19:17:27.527Z,3.10
2022-10-26T19:19:54.960Z,2.97
2022-10-26T19:22:24.557Z,2.65
2022-10-26T19:24:50.925Z,2.92
2022-10-26T19:29:48.572Z,3.42
2022-10-26T19:32:33.440Z,3.33
2022-10-26T19:34:59.965Z,3.00
2022-10-26T19:37:28.476Z,3.10
2022-10-26T19:39:55.200Z,3.17
2022-10-26T19:42:37.929Z,3.15
2022-10-26T19:45:04.611Z,2.83
2022-10-26T19:47:30.978Z,3.35
2022-10-26T19:50:07.191Z,2.80
2022-10-26T19:52:36.421Z,3.00
2022-10-26T19:55:09.764Z,3.13
2022-10-26T19:57:36.120Z,2.67
2022-10-26T20:00:10.132Z,3.17
2022-10-26T20:02:36.609Z,3.40
2022-10-26T20:05:39.773Z,3.55
2022-10-26T20:08:15.462Z,5.18
2022-10-26T20:11:15.650Z,4.30
2022-10-26T20:13:59.725Z,4.75
2022-10-26T20:16:26.212Z,5.88
2022-10-26T20:18:53.713Z,5.28
2022-10-26T20:21:22.123Z,5.53
2022-10-26T20:23:54.595Z,4.97
2022-10-26T20:26:22.568Z,4.45
2022-10-26T20:29:12.746Z,4.90
2022-10-26T20:31:39.108Z,4.03
2022-10-26T20:34:13.727Z,4.78
2022-10-26T20:36:40.099Z,4.30
2022-10-26T20:39:48.380Z,3.88
2022-10-26T20:42:26.305Z,4.30
2022-10-26T20:45:19.842Z,4.65
2022-10-26T20:47:46.614Z,4.10
2022-10-26T20:50:26.328Z,4.33
2022-10-26T20:53:17.139Z,3.67
2022-10-26T20:55:53.635Z,3.85
2022-10-26T20:58:26.118Z,3.10
2022-10-26T21:00:59.915Z,4.32
2022-10-26T21:03:26.373Z,4.17
2022-10-26T21:05:53.203Z,3.50
2022-10-26T21:08:20.350Z,3.42
2022-10-26T21:10:54.929Z,4.13
2022-10-26T21:13:21.282Z,4.07
2022-10-26T21:15:48.723Z,4.20
2022-10-26T21:18:15.163Z,3.78
2022-10-26T21:20:41.527Z,3.70
2022-10-26T21:23:07.919Z,3.60
2022-10-26T21:25:47.101Z,4.03
2022-10-26T21:28:13.438Z,4.00
2022-10-26T21:31:37.993Z,3.85
2022-10-26T21:34:13.524Z,3.60
2022-10-26T21:36:40.069Z,3.85
2022-10-26T21:39:06.447Z,4.13
2022-10-26T21:41:36.118Z,3.43
2022-10-26T21:44:09.028Z,3.33
2022-10-26T21:46:38.089Z,3.47
2022-10-26T21:49:13.775Z,3.67
2022-10-26T21:51:51.419Z,4.05
2022-10-26T21:54:17.783Z,4.23
2022-10-26T21:56:46.291Z,4.22
2022-10-26T21:59:12.673Z,3.70
2022-10-26T22:01:59.253Z,4.22
2022-10-26T22:04:27.810Z,4.40
2022-10-26T22:06:54.168Z,3.90
2022-10-26T22:09:21.645Z,4.00
2022-10-26T22:11:48.131Z,3.92
2022-10-26T22:14:20.632Z,3.97
2022-10-26T22:16:47.036Z,3.97
2022-10-26T22:23:12.474Z,3.85
2022-10-26T22:25:38.815Z,3.63
2022-10-26T22:28:05.184Z,3.55
2022-10-26T22:30:44.956Z,3.50
2022-10-26T22:33:12.838Z,3.57
2022-10-26T22:35:39.181Z,3.85
2022-10-26T22:38:11.756Z,3.90
2022-10-26T22:40:54.015Z,3.70
2022-10-26T22:43:20.760Z,3.55
2022-10-26T22:45:47.196Z,3.43
2022-10-26T22:48:13.710Z,4.28
2022-10-26T22:50:42.167Z,4.10
2022-10-26T22:53:14.786Z,3.90
2022-10-26T22:55:56.601Z,4.20
2022-10-26T22:58:40.975Z,4.20
2022-10-26T23:01:15.430Z,4.38
2022-10-26T23:03:52.684Z,3.92
2022-10-26T23:06:19.997Z,3.88
2022-10-26T23:08:46.873Z,4.28
2022-10-26T23:11:16.424Z,4.47
2022-10-26T23:14:10.496Z,4.13
2022-10-26T23:16:37.952Z,4.18
2022-10-26T23:19:06.423Z,4.43
2022-10-26T23:21:36.961Z,4.22
2022-10-26T23:24:10.553Z,4.13
2022-10-26T23:26:52.164Z,4.22
2022-10-26T23:29:20.611Z,4.13
2022-10-26T23:31:53.012Z,4.78
2022-10-26T23:34:19.385Z,4.43
2022-10-26T23:36:47.998Z,4.20
2022-10-26T23:39:14.472Z,4.57
2022-10-26T23:41:52.067Z,4.38
2022-10-26T23:44:18.478Z,4.00
2022-10-26T23:46:44.859Z,4.28
2022-10-26T23:49:11.218Z,4.07
2022-10-26T23:51:37.583Z,4.35
2022-10-26T23:54:03.929Z,4.47
2022-10-26T23:56:30.320Z,3.90
2022-10-26T23:59:05.742Z,3.75
